In Rescue
 
Wind Gusting 15 knots
10
January 20, 2021 5:02 PM EST
Weather Information
Wind Direction
  230 °
Wind Speed
  10 kt (12 mph)
Wind Gust
  15 kt (17 mph)
Altimeter
30.03 in
Visibility
10 SM
Temperature
-03° C
27° F
Dewpoint
-08° C
18° F
Humidity
69%
1hr Rain Fall
00.00 in.
24hr Rain Fall
00.00 in.
Sky Condition
Scattered @ 2,600 ft
VFR

METAR KONZ 202202Z AUTO 23010G15KT 10SM SCT026 M03/M08 A3003 RMK AO2 T10291077

FAA Disclaimer: The data displayed is for advisory purposes only and is not to be used for flight planning or operations.